Time;durP1;ratioP1;P1;durP2;ratioP2;P2;SDS_P1;SDS_P2;PMS_P1;PMS_P2;Temp;Humidity;BMP_temperature;BMP_pressure;BME280_temperature;BME280_humidity;BME280_pressure;Samples;Min_cycle;Max_cycle;Signal;HPM_P1;HPM_P2
2021/12/08 00:00:16;;;;;;;27.23;13.65;;;-0.20;99.90;;;;;;5047942;28;20052;-77
2021/12/08 00:02:42;;;;;;;26.67;13.00;;;-0.20;99.90;;;;;;5050467;28;20410;-79
2021/12/08 00:05:11;;;;;;;32.50;16.13;;;-0.30;99.90;;;;;;5051287;28;20025;-77
2021/12/08 00:07:36;;;;;;;33.97;16.75;;;-0.30;99.90;;;;;;5049090;28;20488;-76
2021/12/08 00:10:14;;;;;;;;;;;-0.40;99.90;;;;;;5049096;28;20028;-76
2021/12/08 00:15:25;;;;;;;25.10;12.85;;;-0.50;99.90;;;;;;5055690;28;20039;-79
2021/12/08 00:17:51;;;;;;;;;;;-0.50;99.90;;;;;;5056243;28;20025;-77
2021/12/08 00:20:17;;;;;;;21.98;10.43;;;-0.50;99.90;;;;;;5035536;28;20016;-76
2021/12/08 00:22:43;;;;;;;25.05;11.10;;;-0.50;99.90;;;;;;5047265;28;20032;-75
2021/12/08 00:25:08;;;;;;;;;;;-0.50;99.90;;;;;;5047751;28;20029;-75
2021/12/08 00:27:34;;;;;;;25.02;13.23;;;-0.60;99.90;;;;;;5048019;28;19931;-77
2021/12/08 00:29:59;;;;;;;;;;;-0.60;99.90;;;;;;5047395;28;20094;-78
2021/12/08 00:32:28;;;;;;;29.08;15.38;;;-0.60;99.90;;;;;;5049348;28;19905;-80
2021/12/08 00:34:54;;;;;;;28.88;13.18;;;-0.60;99.90;;;;;;5051122;28;20029;-79
2021/12/08 00:37:20;;;;;;;;;;;-0.60;99.90;;;;;;5051065;28;20375;-78
2021/12/08 00:39:46;;;;;;;28.00;13.23;;;-0.60;99.90;;;;;;5048679;28;19959;-78
2021/12/08 00:42:11;;;;;;;;;;;-0.70;99.90;;;;;;5049042;28;20037;-79
2021/12/08 00:44:37;;;;;;;29.70;13.77;;;-0.70;99.90;;;;;;5047783;28;19978;-77
2021/12/08 00:47:04;;;;;;;;;;;-0.70;99.90;;;;;;5048318;28;20433;-77
2021/12/08 00:49:30;;;;;;;29.63;13.85;;;-0.70;99.90;;;;;;5048421;28;19909;-77
2021/12/08 00:51:56;;;;;;;27.15;14.68;;;-0.70;99.90;;;;;;5048197;28;20049;-78
2021/12/08 00:54:21;;;;;;;;;;;-0.70;99.90;;;;;;5044865;28;20061;-77
2021/12/08 00:56:47;;;;;;;25.67;12.55;;;-0.60;99.90;;;;;;5028246;28;19979;-78
2021/12/08 00:59:13;;;;;;;;;;;-0.60;99.90;;;;;;5031183;28;20024;-77
2021/12/08 01:01:39;;;;;;;19.83;9.40;;;-0.50;99.90;;;;;;5048598;28;19920;-77
2021/12/08 01:04:06;;;;;;;15.57;8.93;;;-0.50;99.90;;;;;;5055538;28;20493;-77
2021/12/08 01:06:33;;;;;;;17.95;10.02;;;-0.40;99.90;;;;;;5048046;28;20124;-77
2021/12/08 01:08:58;;;;;;;17.20;8.98;;;-0.40;99.90;;;;;;5047259;28;20747;-77
2021/12/08 01:11:24;;;;;;;;;;;-0.40;99.90;;;;;;5049074;28;20033;-77
2021/12/08 01:13:50;;;;;;;17.48;9.43;;;-0.50;99.90;;;;;;5048396;28;19913;-78
2021/12/08 01:16:17;;;;;;;;;;;-0.60;99.90;;;;;;5049885;28;20072;-77
2021/12/08 01:18:43;;;;;;;23.83;11.93;;;-0.60;99.90;;;;;;5048753;28;19908;-77
2021/12/08 01:21:09;;;;;;;;;;;-0.70;99.90;;;;;;5052064;28;20037;-77
2021/12/08 01:23:37;;;;;;;26.50;13.10;;;-0.70;99.90;;;;;;5053525;28;19970;-77
2021/12/08 01:26:04;;;;;;;21.70;10.90;;;-0.70;99.90;;;;;;5048397;28;20127;-77
2021/12/08 01:28:29;;;;;;;24.27;11.57;;;-0.70;99.90;;;;;;5046663;28;20033;-77
2021/12/08 01:30:56;;;;;;;;;;;-0.60;99.90;;;;;;5046476;28;20029;-77
2021/12/08 01:33:24;;;;;;;17.75;8.90;;;-0.60;99.90;;;;;;5047954;28;19961;-77
2021/12/08 01:35:50;;;;;;;17.00;7.80;;;-0.60;99.90;;;;;;5045618;28;20020;-78
2021/12/08 01:38:16;;;;;;;15.27;6.90;;;-0.50;99.90;;;;;;5047525;28;20013;-78
2021/12/08 01:40:41;;;;;;;;;;;-0.50;99.90;;;;;;5046785;28;20106;-78
2021/12/08 01:43:12;;;;;;;13.48;6.18;;;-0.50;99.90;;;;;;5045955;28;20525;-77
2021/12/08 01:45:58;;;;;;;13.00;6.28;;;-0.40;99.90;;;;;;5045722;28;20028;-77
2021/12/08 01:48:24;;;;;;;11.20;5.57;;;-0.40;99.90;;;;;;5047065;28;20025;-77
2021/12/08 01:50:53;;;;;;;11.38;5.85;;;-0.30;99.90;;;;;;5045138;28;20029;-77
2021/12/08 01:53:20;;;;;;;14.23;7.63;;;-0.30;99.90;;;;;;5046160;28;20032;-77
2021/12/08 01:55:46;;;;;;;15.55;7.57;;;-0.30;99.90;;;;;;5045530;28;20044;-77
2021/12/08 01:58:13;;;;;;;14.70;7.05;;;-0.40;99.90;;;;;;5046005;28;20578;-77
2021/12/08 02:00:47;;;;;;;13.38;6.78;;;-0.40;99.90;;;;;;5045604;28;20060;-78
2021/12/08 02:03:14;;;;;;;14.48;7.65;;;-0.40;99.90;;;;;;5045192;28;20390;-77
2021/12/08 02:05:40;;;;;;;13.07;6.03;;;-0.40;99.90;;;;;;5046782;28;20033;-77
2021/12/08 02:08:06;;;;;;;;;;;-0.50;99.90;;;;;;5046914;28;20611;-78
2021/12/08 02:10:32;;;;;;;12.90;5.85;;;-0.50;99.90;;;;;;5050857;28;19913;-77
2021/12/08 02:12:58;;;;;;;14.20;6.25;;;-0.60;99.90;;;;;;5065976;28;20111;-76
2021/12/08 02:15:24;;;;;;;;;;;-0.70;99.90;;;;;;5065990;28;20059;-76
2021/12/08 02:17:53;;;;;;;10.88;5.50;;;-0.60;99.90;;;;;;5065432;28;20005;-76
2021/12/08 02:20:22;;;;;;;10.00;4.68;;;-0.40;99.90;;;;;;5067401;28;20071;-77
2021/12/08 02:22:48;;;;;;;8.65;4.80;;;-0.30;99.90;;;;;;5067306;28;20040;-77
2021/12/08 02:25:18;;;;;;;;;;;-0.20;99.90;;;;;;5068059;28;20029;-77
2021/12/08 02:27:44;;;;;;;9.55;3.95;;;-0.10;99.90;;;;;;5066545;28;20400;-78
2021/12/08 02:49:28;;;;;;;10.40;4.45;;;-0.30;99.90;;;;;;5046433;28;20409;-77
2021/12/08 02:51:54;;;;;;;;;;;-0.30;99.90;;;;;;5047307;28;20021;-77
2021/12/08 02:54:21;;;;;;;8.25;4.22;;;-0.40;99.90;;;;;;5045152;28;19952;-77
2021/12/08 02:56:47;;;;;;;8.43;4.30;;;-0.40;99.90;;;;;;5047509;28;20024;-77
2021/12/08 02:59:13;;;;;;;10.52;5.07;;;-0.60;99.90;;;;;;5046584;28;20114;-77
2021/12/08 03:01:39;;;;;;;;;;;-0.60;99.90;;;;;;5046284;28;20099;-77
2021/12/08 03:04:06;;;;;;;13.07;6.50;;;-0.80;99.90;;;;;;5046900;28;20377;-77
2021/12/08 03:06:32;;;;;;;14.68;6.60;;;-0.80;99.90;;;;;;5045188;28;20148;-77
2021/12/08 03:08:57;;;;;;;;;;;-0.90;99.90;;;;;;5046034;28;20029;-77
2021/12/08 03:11:24;;;;;;;15.82;7.78;;;-1.00;99.90;;;;;;5046689;28;19962;-76
2021/12/08 03:14:10;;;;;;;15.27;7.53;;;-1.00;99.90;;;;;;5047030;28;20104;-77
2021/12/08 03:16:40;;;;;;;24.17;11.63;;;-1.10;99.90;;;;;;5047687;28;20037;-76
2021/12/08 03:19:06;;;;;;;24.02;13.30;;;-1.00;99.90;;;;;;5049232;28;20036;-77
2021/12/08 03:21:32;;;;;;;;;;;-0.90;99.90;;;;;;5048412;28;20263;-77
2021/12/08 03:24:19;;;;;;;9.93;5.07;;;-0.90;99.90;;;;;;5049486;28;19912;-77
2021/12/08 03:26:51;;;;;;;11.40;5.53;;;-0.90;99.90;;;;;;5049390;28;20041;-76
2021/12/08 03:31:52;;;;;;;8.63;3.97;;;-0.70;99.90;;;;;;5049663;28;20190;-77
2021/12/08 03:34:24;;;;;;;8.40;3.90;;;-0.60;99.90;;;;;;5048144;28;20028;-77
2021/12/08 03:36:50;;;;;;;9.18;4.35;;;-0.60;99.90;;;;;;5049033;28;20025;-77
2021/12/08 03:39:16;;;;;;;14.32;7.13;;;-0.70;99.90;;;;;;5049537;28;20025;-77
2021/12/08 03:41:42;;;;;;;21.27;8.73;;;-0.80;99.90;;;;;;5049573;28;20119;-78
2021/12/08 03:44:08;;;;;;;;;;;-0.90;99.90;;;;;;5051317;28;20716;-78
2021/12/08 03:46:39;;;;;;;16.10;7.63;;;-0.90;99.90;;;;;;5051086;28;20311;-77
2021/12/08 03:49:10;;;;;;;10.77;5.90;;;-1.00;99.90;;;;;;5050310;28;20021;-77
2021/12/08 03:51:36;;;;;;;42.88;9.05;;;-1.00;99.90;;;;;;5049567;28;20036;-77
2021/12/08 03:54:02;;;;;;;12.77;6.22;;;-1.00;99.90;;;;;;5050866;28;20032;-77
2021/12/08 03:56:27;;;;;;;;;;;-1.10;99.90;;;;;;5051919;28;20021;-78
2021/12/08 03:58:53;;;;;;;14.05;5.85;;;-1.10;99.90;;;;;;5049624;28;20083;-77
2021/12/08 04:01:18;;;;;;;;;;;-1.20;99.90;;;;;;5051847;28;20122;-77
2021/12/08 04:03:49;;;;;;;12.35;5.20;;;-1.20;99.90;;;;;;5049602;28;19916;-77
2021/12/08 04:09:26;;;;;;;17.42;8.30;;;-1.30;99.90;;;;;;5059356;28;20115;-78
2021/12/08 04:11:52;;;;;;;17.75;8.13;;;-1.40;99.90;;;;;;5050703;28;20112;-77
2021/12/08 04:14:21;;;;;;;15.45;8.23;;;-1.40;99.90;;;;;;5050432;28;20036;-77
2021/12/08 04:16:51;;;;;;;12.95;7.03;;;-1.40;99.90;;;;;;5048812;28;20104;-76
2021/12/08 04:19:18;;;;;;;16.10;8.75;;;-1.40;99.90;;;;;;5047070;28;20043;-77
2021/12/08 04:21:46;;;;;;;16.77;9.88;;;-1.50;99.90;;;;;;5048240;28;20025;-77
2021/12/08 04:24:12;;;;;;;18.20;10.52;;;-1.50;99.90;;;;;;5046755;28;20516;-76
2021/12/08 04:26:49;;;;;;;22.58;10.65;;;-1.50;99.90;;;;;;5049979;28;20037;-77
2021/12/08 04:29:16;;;;;;;21.35;10.30;;;-1.40;99.90;;;;;;5049685;28;20013;-77
2021/12/08 04:31:44;;;;;;;22.10;9.93;;;-1.40;99.90;;;;;;5046508;28;20033;-77
2021/12/08 04:34:17;;;;;;;22.95;9.93;;;-1.50;99.90;;;;;;5047967;28;20650;-77
2021/12/08 04:36:47;;;;;;;20.88;9.93;;;-1.50;99.90;;;;;;5046921;28;20033;-77
2021/12/08 04:39:36;;;;;;;18.05;9.25;;;-1.50;99.90;;;;;;5048193;28;20025;-77
2021/12/08 04:42:07;;;;;;;15.80;8.40;;;-1.50;99.90;;;;;;5046962;28;20036;-77
2021/12/08 04:44:41;;;;;;;20.80;11.20;;;-1.50;99.90;;;;;;5047524;28;20048;-76
2021/12/08 04:52:23;;;;;;;13.20;5.97;;;-1.50;99.90;;;;;;5048020;28;20107;-77
2021/12/08 05:06:38;;;;;;;23.20;10.00;;;-1.60;99.90;;;;;;5048039;28;20029;-77
2021/12/08 05:09:12;;;;;;;26.25;10.27;;;-1.70;99.90;;;;;;5047770;28;20032;-77
2021/12/08 05:11:45;;;;;;;26.55;11.57;;;-1.80;99.90;;;;;;5046028;28;20112;-77
2021/12/08 05:14:19;;;;;;;26.95;12.20;;;-1.80;99.90;;;;;;5045862;28;20492;-77
2021/12/08 05:16:49;;;;;;;30.88;13.45;;;-1.80;99.90;;;;;;5047320;28;20021;-77
2021/12/08 05:19:21;;;;;;;73.85;29.80;;;-1.80;99.90;;;;;;5046312;28;20413;-77
2021/12/08 05:21:55;;;;;;;92.68;37.15;;;-1.80;99.90;;;;;;5046633;28;20028;-77
2021/12/08 05:24:32;;;;;;;91.72;37.22;;;-1.80;99.90;;;;;;5047390;28;20033;-76
2021/12/08 05:27:04;;;;;;;62.25;25.33;;;-1.80;99.90;;;;;;5047891;28;20096;-79
2021/12/08 05:29:40;;;;;;;56.42;21.77;;;-1.80;99.90;;;;;;5046711;28;20486;-78
2021/12/08 05:32:07;;;;;;;;;;;-1.90;99.90;;;;;;5049048;28;20037;-78
2021/12/08 05:34:33;;;;;;;;;;;-1.90;99.90;;;;;;5047882;28;19915;-77
2021/12/08 05:36:59;;;;;;;34.50;15.10;;;-2.00;99.90;;;;;;5050080;28;19909;-78
2021/12/08 05:39:26;;;;;;;;;;;-2.00;99.90;;;;;;5055929;28;20272;-77
2021/12/08 05:41:57;;;;;;;76.47;22.58;;;-2.10;99.90;;;;;;5046662;28;20262;-77
2021/12/08 05:44:24;;;;;;;69.63;24.58;;;-2.10;99.90;;;;;;5046509;28;20033;-77
2021/12/08 05:46:52;;;;;;;66.43;23.00;;;-2.20;99.90;;;;;;5045594;28;20676;-78
2021/12/08 05:49:19;;;;;;;87.25;25.55;;;-2.20;99.90;;;;;;5047810;28;20033;-78
2021/12/08 05:51:48;;;;;;;78.53;26.13;;;-2.20;99.90;;;;;;5029705;28;20025;-77
2021/12/08 05:54:19;;;;;;;75.93;27.60;;;-2.20;99.90;;;;;;5047327;28;20033;-77
2021/12/08 05:56:46;;;;;;;70.72;27.38;;;-2.30;99.90;;;;;;5045621;28;20041;-78
2021/12/08 05:59:12;;;;;;;85.65;29.80;;;-2.20;99.90;;;;;;5046961;28;20029;-77
2021/12/08 06:01:44;;;;;;;61.83;23.40;;;-2.20;99.90;;;;;;5045175;28;20056;-76
2021/12/08 06:04:11;;;;;;;31.75;13.13;;;-2.20;99.90;;;;;;5046156;28;20029;-77
2021/12/08 06:06:39;;;;;;;29.73;13.15;;;-2.20;99.90;;;;;;5047169;28;20041;-77
2021/12/08 06:09:08;;;;;;;32.92;13.98;;;-2.20;99.90;;;;;;5045387;28;20029;-77
2021/12/08 06:11:35;;;;;;;28.95;12.75;;;-2.30;99.90;;;;;;5045869;28;20037;-77
2021/12/08 06:14:02;;;;;;;38.72;15.43;;;-2.30;99.90;;;;;;5045639;28;20032;-77
2021/12/08 06:16:30;;;;;;;63.03;17.80;;;-2.40;99.90;;;;;;5047821;28;20515;-79
2021/12/08 06:18:57;;;;;;;60.35;22.88;;;-2.30;99.90;;;;;;5040950;28;20029;-77
2021/12/08 06:21:27;;;;;;;63.83;22.70;;;-2.30;99.90;;;;;;5046193;28;20044;-77
2021/12/08 06:23:54;;;;;;;43.08;18.67;;;-2.30;99.90;;;;;;5046254;28;20417;-78
2021/12/08 06:26:23;;;;;;;26.85;11.38;;;-2.20;99.90;;;;;;5047628;28;20486;-77
2021/12/08 06:28:49;;;;;;;12.30;6.50;;;-2.20;99.90;;;;;;5048736;28;20032;-77
2021/12/08 06:31:15;;;;;;;;;;;-2.00;99.90;;;;;;5047908;28;20108;-77
2021/12/08 06:33:42;;;;;;;11.48;6.78;;;-1.90;99.90;;;;;;5048519;28;19909;-77
2021/12/08 06:36:22;;;;;;;15.18;7.25;;;-1.80;99.90;;;;;;5047404;28;20063;-79
2021/12/08 06:38:50;;;;;;;13.32;6.57;;;-1.80;99.90;;;;;;5047675;28;20036;-78
2021/12/08 06:41:24;;;;;;;47.22;18.60;;;-1.80;99.90;;;;;;5046547;28;20180;-78
2021/12/08 06:43:55;;;;;;;43.95;20.88;;;-1.90;99.90;;;;;;5047629;28;20021;-77
2021/12/08 06:46:22;;;;;;;67.20;26.10;;;-1.90;99.90;;;;;;5045874;28;20503;-77
2021/12/08 06:48:52;;;;;;;55.42;25.63;;;-1.90;99.90;;;;;;5046097;28;20025;-78
2021/12/08 06:51:23;;;;;;;68.60;26.88;;;-2.00;99.90;;;;;;5049533;28;20028;-76
2021/12/08 06:53:55;;;;;;;53.35;21.63;;;-2.00;99.90;;;;;;5053496;28;20057;-78
2021/12/08 06:56:30;;;;;;;42.88;18.88;;;-1.90;99.90;;;;;;5055601;28;20025;-78
2021/12/08 06:58:59;;;;;;;33.05;14.00;;;-1.90;99.90;;;;;;5048774;28;20036;-78
2021/12/08 07:07:01;;;;;;;21.25;10.05;;;-1.50;99.90;;;;;;5052199;28;20516;-76
2021/12/08 07:09:41;;;;;;;27.52;13.15;;;-1.30;99.90;;;;;;5059388;28;20032;-78
2021/12/08 07:12:32;;;;;;;20.08;9.10;;;-0.90;99.90;;;;;;5050098;28;20044;-77
2021/12/08 07:15:10;;;;;;;20.13;8.70;;;-0.60;99.90;;;;;;5046251;28;20079;-78
2021/12/08 07:17:38;;;;;;;26.85;10.43;;;-0.30;99.90;;;;;;5049193;28;20033;-76
2021/12/08 07:22:53;;;;;;;51.65;21.77;;;0.20;99.90;;;;;;5050753;28;20065;-78
2021/12/08 07:25:21;;;;;;;63.53;25.23;;;0.30;99.90;;;;;;5049964;28;20096;-77
2021/12/08 07:27:46;;;;;;;54.90;23.73;;;0.50;99.90;;;;;;5050052;28;20524;-76
2021/12/08 07:30:15;;;;;;;;;;;0.60;99.90;;;;;;5049362;28;20033;-76
2021/12/08 07:32:43;;;;;;;68.60;26.23;;;0.70;99.90;;;;;;5048299;28;19915;-76
2021/12/08 07:35:17;;;;;;;52.92;21.40;;;0.80;99.90;;;;;;5050664;28;20048;-76
2021/12/08 07:37:43;;;;;;;50.75;19.83;;;1.00;99.90;;;;;;5049498;28;20027;-77
2021/12/08 07:40:14;;;;;;;;;;;1.30;99.90;;;;;;5051034;28;20032;-77
2021/12/08 07:42:48;;;;;;;47.47;19.95;;;1.60;99.90;;;;;;5044926;28;19954;-75
2021/12/08 07:45:19;;;;;;;14.23;6.93;;;1.90;99.90;;;;;;5051673;28;20029;-77
2021/12/08 07:47:46;;;;;;;15.45;7.00;;;2.10;99.90;;;;;;5050574;28;20033;-76
2021/12/08 07:50:34;;;;;;;22.20;9.50;;;2.40;99.90;;;;;;5050656;28;20115;-76
2021/12/08 07:53:01;;;;;;;44.67;15.45;;;2.60;99.90;;;;;;5051390;28;20035;-76
2021/12/08 07:55:34;;;;;;;39.90;14.60;;;3.00;99.90;;;;;;5047973;28;20040;-76
2021/12/08 07:58:00;;;;;;;50.65;17.88;;;3.20;99.90;;;;;;5048116;28;20162;-76
2021/12/08 08:00:29;;;;;;;55.22;20.13;;;3.40;99.90;;;;;;5049831;28;20044;-76
2021/12/08 08:02:55;;;;;;;29.42;13.05;;;3.60;99.90;;;;;;5047278;28;20029;-77
2021/12/08 08:05:22;;;;;;;;;;;3.80;99.90;;;;;;5049449;28;20083;-75
2021/12/08 08:07:49;;;;;;;35.38;15.50;;;4.10;99.90;;;;;;5047594;28;19924;-77
2021/12/08 08:10:18;;;;;;;29.98;13.18;;;4.20;99.90;;;;;;5049216;28;20553;-76
2021/12/08 08:12:48;;;;;;;35.40;14.20;;;4.60;99.90;;;;;;5046789;28;20032;-76
2021/12/08 08:15:21;;;;;;;32.30;14.45;;;4.80;99.90;;;;;;5043451;28;20418;-76
2021/12/08 08:17:50;;;;;;;24.88;12.65;;;5.10;99.90;;;;;;5026433;28;20604;-76
2021/12/08 08:20:22;;;;;;;33.72;15.88;;;5.50;99.90;;;;;;5028137;28;20041;-75
2021/12/08 08:22:48;;;;;;;36.70;17.85;;;5.90;99.90;;;;;;5023827;28;20561;-76
2021/12/08 08:25:14;;;;;;;;;;;6.40;99.90;;;;;;5027654;28;20026;-76
2021/12/08 08:27:40;;;;;;;31.98;14.40;;;6.50;94.30;;;;;;5025535;28;19920;-75
2021/12/08 08:30:08;;;;;;;;;;;6.30;96.60;;;;;;5026606;28;20041;-76
2021/12/08 08:32:37;;;;;;;35.80;16.20;;;6.20;95.70;;;;;;5024491;28;19967;-76
2021/12/08 08:35:14;;;;;;;27.17;13.95;;;6.00;97.50;;;;;;5027383;28;20025;-76
2021/12/08 08:37:40;;;;;;;24.75;12.23;;;5.80;95.30;;;;;;5027685;28;20430;-76
2021/12/08 08:40:09;;;;;;;;;;;5.60;98.60;;;;;;5029265;28;20029;-75
2021/12/08 08:42:40;;;;;;;16.08;8.45;;;5.50;97.00;;;;;;5025795;28;20412;-76
2021/12/08 08:45:20;;;;;;;16.67;8.15;;;5.40;99.40;;;;;;5031202;28;20037;-75
2021/12/08 08:47:54;;;;;;;10.48;5.93;;;5.40;98.60;;;;;;5027585;28;20537;-77
2021/12/08 08:50:28;;;;;;;9.82;6.50;;;5.50;98.20;;;;;;5028218;28;20031;-76
2021/12/08 08:52:56;;;;;;;11.13;6.40;;;5.30;98.40;;;;;;5027892;28;20033;-77
2021/12/08 08:55:32;;;;;;;9.68;5.50;;;5.10;98.80;;;;;;5028600;28;20124;-78
2021/12/08 08:58:00;;;;;;;11.38;6.40;;;5.00;99.90;;;;;;5027497;28;20026;-77
2021/12/08 09:00:31;;;;;;;10.15;5.57;;;5.00;99.80;;;;;;5033719;28;20109;-77
2021/12/08 09:03:01;;;;;;;11.60;5.78;;;5.00;99.80;;;;;;5045898;28;20029;-77
2021/12/08 09:05:45;;;;;;;12.65;6.85;;;5.00;99.80;;;;;;5048456;28;20816;-77
2021/12/08 09:08:17;;;;;;;13.60;6.93;;;4.90;99.90;;;;;;5046417;28;20095;-78
2021/12/08 09:10:59;;;;;;;12.77;7.18;;;4.80;99.90;;;;;;5048142;28;20033;-77
2021/12/08 09:13:39;;;;;;;12.95;6.78;;;4.70;99.90;;;;;;5046206;28;20118;-78
2021/12/08 09:16:15;;;;;;;13.38;7.45;;;4.60;99.50;;;;;;5046319;28;20033;-78
2021/12/08 09:19:04;;;;;;;14.38;8.77;;;4.50;99.80;;;;;;5047796;28;20052;-78
2021/12/08 09:21:59;;;;;;;18.63;8.48;;;4.40;99.90;;;;;;5046832;28;20541;-78
2021/12/08 09:24:37;;;;;;;18.08;8.93;;;4.50;99.90;;;;;;5046753;28;20528;-78
2021/12/08 09:27:08;;;;;;;16.33;8.73;;;4.40;99.90;;;;;;5047877;28;20470;-78
2021/12/08 09:29:57;;;;;;;13.75;7.82;;;4.40;99.90;;;;;;5048238;28;20557;-78
2021/12/08 09:32:34;;;;;;;16.05;8.18;;;4.40;99.90;;;;;;5050322;28;20028;-79
2021/12/08 09:35:13;;;;;;;17.40;8.60;;;4.40;99.90;;;;;;5048712;28;20060;-78
2021/12/08 09:37:44;;;;;;;19.05;8.65;;;4.40;99.90;;;;;;5047083;28;20119;-78
2021/12/08 09:40:33;;;;;;;16.73;8.68;;;4.30;99.90;;;;;;5046088;28;20048;-78
2021/12/08 09:43:11;;;;;;;31.63;19.83;;;4.30;99.90;;;;;;5047119;28;20078;-78
2021/12/08 09:45:47;;;;;;;32.88;19.02;;;4.20;99.90;;;;;;5042577;28;20056;-79
2021/12/08 09:48:14;;;;;;;21.13;14.20;;;4.20;99.90;;;;;;5046934;28;20127;-78
2021/12/08 09:50:40;;;;;;;23.58;11.85;;;4.20;99.90;;;;;;5046309;28;20059;-78
2021/12/08 09:53:06;;;;;;;;;;;4.10;99.90;;;;;;5046894;28;20104;-78
2021/12/08 09:55:32;;;;;;;19.10;9.07;;;4.10;99.90;;;;;;5047479;28;19915;-78
2021/12/08 09:57:57;;;;;;;;;;;4.10;99.90;;;;;;5048195;28;20027;-79
2021/12/08 10:00:29;;;;;;;19.75;10.82;;;4.10;99.90;;;;;;5045449;28;19951;-78
2021/12/08 10:02:58;;;;;;;17.95;10.13;;;4.00;99.90;;;;;;5046814;28;20078;-78
2021/12/08 10:05:26;;;;;;;18.13;10.20;;;4.00;99.90;;;;;;5046088;28;20021;-79
2021/12/08 10:07:52;;;;;;;17.55;10.13;;;4.00;99.90;;;;;;5046308;28;20037;-78
2021/12/08 10:10:19;;;;;;;17.67;10.05;;;4.00;99.90;;;;;;5045522;28;20056;-77
2021/12/08 10:12:45;;;;;;;23.23;10.88;;;4.00;99.90;;;;;;5045733;28;20033;-78
2021/12/08 10:15:16;;;;;;;;;;;4.00;99.90;;;;;;5047091;28;20575;-79
2021/12/08 10:17:42;;;;;;;18.75;9.38;;;4.00;99.90;;;;;;5045308;28;19908;-78
2021/12/08 10:20:07;;;;;;;;;;;4.00;99.90;;;;;;5046129;28;20498;-78
2021/12/08 10:22:33;;;;;;;16.02;9.60;;;3.90;99.90;;;;;;5046471;28;19931;-78
2021/12/08 10:25:11;;;;;;;;;;;3.90;99.90;;;;;;5047706;28;20547;-77
2021/12/08 10:28:31;;;;;;;17.83;9.45;;;3.80;99.90;;;;;;5049233;28;19916;-78
2021/12/08 10:31:05;;;;;;;16.20;9.23;;;3.80;99.90;;;;;;5031530;28;20520;-78
2021/12/08 10:33:58;;;;;;;16.58;9.82;;;3.80;99.90;;;;;;5046317;28;20080;-78
2021/12/08 10:36:45;;;;;;;17.73;9.93;;;3.80;99.90;;;;;;5050866;28;20561;-78
2021/12/08 10:39:22;;;;;;;15.63;9.23;;;3.80;99.90;;;;;;5050472;28;20269;-78
2021/12/08 10:42:06;;;;;;;16.77;9.00;;;3.80;99.90;;;;;;5049634;28;20059;-78
2021/12/08 10:44:45;;;;;;;13.70;8.30;;;3.80;99.90;;;;;;5050115;28;20036;-78
2021/12/08 10:47:16;;;;;;;14.55;8.75;;;3.80;99.90;;;;;;5049563;28;20469;-78
2021/12/08 10:55:12;;;;;;;16.90;9.52;;;3.90;99.90;;;;;;5052344;28;20028;-78
2021/12/08 10:57:39;;;;;;;15.75;8.55;;;3.90;99.90;;;;;;5049356;28;20397;-79
2021/12/08 11:00:12;;;;;;;14.73;9.25;;;4.00;99.90;;;;;;5049405;28;20120;-78
2021/12/08 11:02:54;;;;;;;25.40;15.57;;;3.90;99.90;;;;;;5050009;28;20551;-79
2021/12/08 11:05:26;;;;;;;20.70;10.98;;;3.90;99.90;;;;;;5050810;28;20029;-78
2021/12/08 11:08:10;;;;;;;17.38;10.82;;;3.80;99.90;;;;;;5050234;28;20036;-78
2021/12/08 11:10:38;;;;;;;23.42;12.30;;;3.80;99.90;;;;;;5050600;28;20033;-79
2021/12/08 11:13:05;;;;;;;53.85;33.28;;;3.80;99.90;;;;;;5051421;28;20040;-79
2021/12/08 11:15:32;;;;;;;33.90;20.50;;;3.70;99.90;;;;;;5055837;28;20033;-78
2021/12/08 11:18:21;;;;;;;25.35;14.15;;;3.70;99.90;;;;;;5056771;28;20070;-79
2021/12/08 11:20:58;;;;;;;26.25;14.18;;;3.80;99.90;;;;;;5058301;28;20049;-80
2021/12/08 11:23:43;;;;;;;27.60;13.02;;;3.80;99.90;;;;;;5060926;28;20020;-80
2021/12/08 11:26:29;;;;;;;21.63;12.05;;;3.80;99.90;;;;;;5057755;28;20081;-79
2021/12/08 11:29:06;;;;;;;24.30;15.55;;;3.90;99.90;;;;;;5056271;28;20036;-79
2021/12/08 11:31:48;;;;;;;21.05;12.65;;;3.70;99.90;;;;;;5058093;28;20064;-79
2021/12/08 11:34:27;;;;;;;20.73;13.38;;;3.60;99.90;;;;;;5055495;28;20049;-79
2021/12/08 11:37:03;;;;;;;22.27;12.90;;;3.60;99.90;;;;;;5053507;28;20153;-81
2021/12/08 11:39:39;;;;;;;22.33;12.97;;;3.60;99.90;;;;;;5041406;28;20052;-78
2021/12/08 11:42:12;;;;;;;21.67;12.02;;;3.60;99.90;;;;;;5048509;28;20040;-79
2021/12/08 11:44:41;;;;;;;26.00;15.68;;;3.50;99.90;;;;;;5043707;28;20092;-79
2021/12/08 11:47:14;;;;;;;23.77;14.23;;;3.50;99.90;;;;;;5060769;28;20044;-79
2021/12/08 11:49:55;;;;;;;29.77;15.60;;;3.50;99.90;;;;;;5046525;28;20098;-79
2021/12/08 11:52:25;;;;;;;28.27;15.50;;;3.40;99.90;;;;;;5046434;28;20566;-78
2021/12/08 11:55:00;;;;;;;24.58;14.70;;;3.40;99.90;;;;;;5047102;28;20048;-78
2021/12/08 11:57:36;;;;;;;28.73;14.80;;;3.40;99.90;;;;;;5045960;28;20456;-78
2021/12/08 12:00:21;;;;;;;22.55;13.93;;;3.40;99.90;;;;;;5038884;28;20091;-79
2021/12/08 12:02:55;;;;;;;25.80;13.95;;;3.40;99.90;;;;;;5041992;28;20041;-79
2021/12/08 12:05:29;;;;;;;23.15;12.70;;;3.30;99.90;;;;;;5044569;28;20557;-78
2021/12/08 12:07:55;;;;;;;24.85;13.48;;;3.30;99.90;;;;;;5042885;28;20062;-79
2021/12/08 12:10:23;;;;;;;;;;;3.20;99.90;;;;;;5028446;28;20236;-79
2021/12/08 12:12:49;;;;;;;22.13;12.65;;;3.20;99.90;;;;;;5032350;28;19919;-78
2021/12/08 12:15:17;;;;;;;;;;;3.20;99.90;;;;;;5031764;28;20037;-78
2021/12/08 12:17:43;;;;;;;20.42;12.20;;;3.10;99.90;;;;;;5030401;28;19920;-79
2021/12/08 12:20:18;;;;;;;20.23;11.32;;;3.10;99.90;;;;;;5048750;28;20056;-79
2021/12/08 12:23:25;;;;;;;16.98;10.15;;;3.10;99.90;;;;;;5037441;28;20041;-79
2021/12/08 12:26:06;;;;;;;19.48;10.63;;;3.00;99.90;;;;;;5037765;28;20557;-79
2021/12/08 12:28:51;;;;;;;18.38;10.32;;;3.10;99.90;;;;;;5040709;28;20454;-78
2021/12/08 12:31:33;;;;;;;18.25;10.75;;;3.10;99.90;;;;;;5040826;28;20033;-79
2021/12/08 12:33:59;;;;;;;17.65;10.02;;;3.20;99.90;;;;;;5042033;28;20474;-79
2021/12/08 12:36:25;;;;;;;;;;;3.10;99.90;;;;;;5044427;28;20644;-79
2021/12/08 12:38:52;;;;;;;18.83;11.32;;;3.10;99.90;;;;;;5038736;28;20023;-78
2021/12/08 12:41:27;;;;;;;23.33;13.43;;;3.10;99.90;;;;;;5045549;28;20532;-79
2021/12/08 12:44:17;;;;;;;21.42;12.32;;;3.10;99.90;;;;;;5040228;28;20507;-78
2021/12/08 12:47:09;;;;;;;27.55;12.73;;;3.10;99.90;;;;;;5046045;28;20041;-78
2021/12/08 12:49:37;;;;;;;29.55;14.38;;;3.10;99.90;;;;;;5045808;28;20079;-79
2021/12/08 12:52:08;;;;;;;35.42;16.95;;;3.20;99.90;;;;;;5047398;28;20425;-79
2021/12/08 12:54:35;;;;;;;33.25;18.00;;;3.20;99.90;;;;;;5044492;28;20497;-79
2021/12/08 12:57:06;;;;;;;37.97;20.52;;;3.20;99.90;;;;;;5043025;28;20038;-79
2021/12/08 12:59:53;;;;;;;32.10;17.33;;;3.20;99.90;;;;;;5045541;28;20064;-79
2021/12/08 13:02:32;;;;;;;33.88;17.65;;;3.20;99.90;;;;;;5042978;28;20079;-79
2021/12/08 13:05:10;;;;;;;34.90;21.52;;;3.20;99.90;;;;;;5046987;28;20522;-79
2021/12/08 13:07:42;;;;;;;42.67;23.40;;;3.20;99.90;;;;;;5042786;28;20512;-80
2021/12/08 13:10:14;;;;;;;42.90;22.98;;;3.20;99.90;;;;;;5045064;28;20033;-79
2021/12/08 13:12:43;;;;;;;45.67;25.77;;;3.20;99.90;;;;;;5041520;28;20162;-78
2021/12/08 13:15:19;;;;;;;28.40;15.85;;;3.20;99.90;;;;;;5040134;28;20088;-79
2021/12/08 13:18:03;;;;;;;;;;;3.10;99.90;;;;;;5032519;28;20382;-78
2021/12/08 13:20:42;;;;;;;37.70;18.13;;;3.00;99.90;;;;;;5042217;28;19951;-78
2021/12/08 13:23:13;;;;;;;34.83;21.23;;;3.00;99.90;;;;;;5042879;28;20056;-79
2021/12/08 13:25:51;;;;;;;39.75;21.55;;;2.90;99.90;;;;;;5056728;28;20047;-80
2021/12/08 13:31:38;;;;;;;33.20;19.30;;;2.90;99.90;;;;;;5050392;28;20048;-77
2021/12/08 13:34:09;;;;;;;37.55;18.80;;;2.80;99.90;;;;;;5050081;28;20620;-78
2021/12/08 13:36:44;;;;;;;34.72;19.30;;;2.80;99.90;;;;;;5051568;28;20459;-79
2021/12/08 13:39:29;;;;;;;46.47;28.83;;;2.70;99.90;;;;;;5051922;28;20075;-81
2021/12/08 13:42:10;;;;;;;47.25;24.88;;;2.70;99.90;;;;;;5061792;28;20040;-79
2021/12/08 13:44:39;;;;;;;43.85;23.13;;;2.70;99.90;;;;;;5053305;28;20135;-79
2021/12/08 13:47:25;;;;;;;62.17;36.35;;;2.70;99.90;;;;;;5052132;28;20037;-78
2021/12/08 13:49:54;;;;;;;48.08;26.48;;;2.70;99.90;;;;;;5049948;28;20095;-77
2021/12/08 13:52:23;;;;;;;41.90;22.40;;;2.60;99.90;;;;;;5051534;28;20067;-79
2021/12/08 13:55:16;;;;;;;36.72;21.77;;;2.50;99.90;;;;;;5051759;28;20452;-78
2021/12/08 13:58:02;;;;;;;35.22;18.38;;;2.50;99.90;;;;;;5051189;28;20091;-80
2021/12/08 14:00:33;;;;;;;35.45;19.27;;;2.50;99.90;;;;;;5038516;28;20071;-78
2021/12/08 14:03:05;;;;;;;41.10;15.75;;;2.50;99.90;;;;;;5053148;28;20025;-78
2021/12/08 14:05:30;;;;;;;32.45;17.00;;;2.50;99.90;;;;;;5053319;28;20025;-79
2021/12/08 14:07:58;;;;;;;;;;;2.40;99.90;;;;;;5052515;28;20037;-78
2021/12/08 14:10:45;;;;;;;33.00;16.77;;;2.40;99.90;;;;;;5047016;28;19904;-78
2021/12/08 14:13:12;;;;;;;;;;;2.30;99.90;;;;;;5030681;28;20045;-78